createdAt,value
2022-11-27T00:01:25.515Z,101375.53
2022-11-27T00:03:53.172Z,101365.75
2022-11-27T00:06:22.774Z,101371.22
2022-11-27T00:08:49.600Z,101370.44
2022-11-27T00:11:21.603Z,101361.59
2022-11-27T00:13:49.694Z,101370.06
2022-11-27T00:16:16.922Z,101365.56
2022-11-27T00:18:43.949Z,101356.31
2022-11-27T00:21:13.813Z,101352.47
2022-11-27T00:23:43.375Z,101347.19
2022-11-27T00:26:14.943Z,101340.63
2022-11-27T00:28:41.497Z,101342.22
2022-11-27T00:31:17.639Z,101335.25
2022-11-27T00:33:45.178Z,101340.63
2022-11-27T00:36:12.656Z,101339.97
2022-11-27T00:38:39.498Z,101325.28
2022-11-27T00:41:15.894Z,101333.94
2022-11-27T00:43:44.917Z,101332.72
2022-11-27T00:46:16.256Z,101336.97
2022-11-27T00:48:43.492Z,101337.34
2022-11-27T00:51:12.680Z,101336.84
2022-11-27T00:53:39.429Z,101335.56
2022-11-27T00:56:06.014Z,101334.72
2022-11-27T00:58:32.436Z,101338.44
2022-11-27T01:01:01.508Z,101340.16
2022-11-27T01:03:29.995Z,101333.00
2022-11-27T01:05:56.711Z,101336.56
2022-11-27T01:08:25.323Z,101336.75
2022-11-27T01:10:55.143Z,101338.09
2022-11-27T01:13:27.331Z,101328.88
2022-11-27T01:16:08.151Z,101326.69
2022-11-27T01:18:39.267Z,101330.09
2022-11-27T01:21:06.306Z,101331.31
2022-11-27T01:23:32.841Z,101312.13
2022-11-27T01:26:07.012Z,101310.63
2022-11-27T01:28:34.672Z,101309.97
2022-11-27T01:31:13.495Z,101308.19
2022-11-27T01:33:39.990Z,101307.59
2022-11-27T01:36:08.515Z,101307.41
2022-11-27T01:38:35.066Z,101304.19
2022-11-27T01:41:07.828Z,101298.47
2022-11-27T01:43:52.869Z,101296.69
2022-11-27T01:46:37.099Z,101287.28
2022-11-27T01:49:09.333Z,101278.63
2022-11-27T01:51:41.120Z,101273.16
2022-11-27T01:54:09.900Z,101279.56
2022-11-27T01:56:36.976Z,101283.16
2022-11-27T01:59:04.052Z,101279.13
2022-11-27T02:01:30.691Z,101272.44
2022-11-27T02:03:59.498Z,101265.81
2022-11-27T02:06:26.240Z,101262.47
2022-11-27T02:08:53.336Z,101261.88
2022-11-27T02:11:33.641Z,101256.81
2022-11-27T02:14:24.165Z,101249.28
2022-11-27T02:17:10.735Z,101252.94
2022-11-27T02:20:07.375Z,101254.53
2022-11-27T02:22:51.949Z,101244.56
2022-11-27T02:25:52.837Z,101244.94
2022-11-27T02:28:37.403Z,101240.88
2022-11-27T02:31:13.004Z,101241.06
2022-11-27T02:33:45.158Z,101243.94
2022-11-27T02:36:18.865Z,101244.13
2022-11-27T02:38:53.108Z,101246.13
2022-11-27T02:41:24.755Z,101239.00
2022-11-27T02:43:52.945Z,101243.59
2022-11-27T02:46:20.689Z,101251.94
2022-11-27T02:48:54.733Z,101249.94
2022-11-27T02:51:58.970Z,101246.34
2022-11-27T02:54:29.058Z,101245.75
2022-11-27T02:56:58.223Z,101247.78
2022-11-27T02:59:29.419Z,101249.63
2022-11-27T03:02:00.651Z,101256.59
2022-11-27T03:04:34.388Z,101249.63
2022-11-27T03:07:06.932Z,101258.28
2022-11-27T03:09:38.747Z,101252.19
2022-11-27T03:12:06.999Z,101255.75
2022-11-27T03:14:36.029Z,101251.53
2022-11-27T03:17:52.464Z,101259.31
2022-11-27T03:20:30.426Z,101255.84
2022-11-27T03:22:57.227Z,101264.66
2022-11-27T03:25:24.508Z,101261.25
2022-11-27T03:28:02.481Z,101248.31
2022-11-27T03:30:28.920Z,101257.31
2022-11-27T03:32:55.897Z,101254.25
2022-11-27T03:35:26.294Z,101252.41
2022-11-27T03:37:52.996Z,101261.53
2022-11-27T03:40:20.325Z,101253.06
2022-11-27T03:43:03.731Z,101247.81
2022-11-27T03:45:48.419Z,101246.97
2022-11-27T03:48:17.488Z,101249.25
2022-11-27T03:50:58.916Z,101241.28
2022-11-27T03:53:56.211Z,101235.53
2022-11-27T03:56:43.894Z,101233.25
2022-11-27T03:59:17.097Z,101235.09
2022-11-27T04:01:43.575Z,101240.69
2022-11-27T04:04:10.140Z,101227.56
2022-11-27T04:06:36.606Z,101226.03
2022-11-27T04:09:03.984Z,101228.66
2022-11-27T04:11:30.454Z,101224.44
2022-11-27T04:13:56.839Z,101225.78
2022-11-27T04:16:23.262Z,101232.03
2022-11-27T04:18:49.729Z,101234.94
2022-11-27T04:21:17.021Z,101233.13
2022-11-27T04:23:43.995Z,101233.22
2022-11-27T04:26:10.862Z,101233.38
2022-11-27T04:28:37.296Z,101233.38
2022-11-27T04:31:03.967Z,101243.03
2022-11-27T04:33:30.494Z,101240.50
2022-11-27T04:35:56.852Z,101237.09
2022-11-27T04:38:23.283Z,101237.28
2022-11-27T04:40:51.789Z,101237.28
2022-11-27T04:43:18.168Z,101241.00
2022-11-27T04:45:44.688Z,101240.22
2022-11-27T04:48:11.142Z,101239.28
2022-11-27T04:50:37.567Z,101244.78
2022-11-27T04:53:04.104Z,101236.16
2022-11-27T04:55:30.493Z,101235.38
2022-11-27T04:57:56.872Z,101234.69
2022-11-27T05:00:23.329Z,101227.91
2022-11-27T05:02:49.768Z,101232.72
2022-11-27T05:05:17.202Z,101233.81
2022-11-27T05:07:43.686Z,101239.50
2022-11-27T05:10:10.516Z,101230.72
2022-11-27T05:12:36.897Z,101226.72
2022-11-27T05:15:04.807Z,101224.41
2022-11-27T05:17:31.708Z,101226.13
2022-11-27T05:19:58.067Z,101227.66
2022-11-27T05:22:24.425Z,101229.50
2022-11-27T05:24:50.775Z,101239.06
2022-11-27T05:27:17.151Z,101238.94
2022-11-27T05:29:43.783Z,101242.59
2022-11-27T05:32:10.153Z,101247.00
2022-11-27T05:34:36.526Z,101253.09
2022-11-27T05:37:02.991Z,101251.66
2022-11-27T05:39:29.332Z,101246.31
2022-11-27T05:41:55.712Z,101258.50
2022-11-27T05:44:22.060Z,101249.03
2022-11-27T05:46:48.475Z,101250.19
2022-11-27T05:49:16.474Z,101250.34
2022-11-27T05:51:50.424Z,101246.00
2022-11-27T05:54:17.367Z,101248.78
2022-11-27T05:56:43.720Z,101252.19
2022-11-27T05:59:10.795Z,101243.53
2022-11-27T06:01:37.209Z,101241.00
2022-11-27T06:04:03.673Z,101244.97
2022-11-27T06:06:30.699Z,101242.75
2022-11-27T06:08:57.055Z,101232.44
2022-11-27T06:11:23.866Z,101228.09
2022-11-27T06:13:50.959Z,101229.81
2022-11-27T06:16:19.972Z,101218.06
2022-11-27T06:18:50.036Z,101230.69
2022-11-27T06:21:16.990Z,101230.38
2022-11-27T06:23:44.435Z,101233.16
2022-11-27T06:26:11.423Z,101230.06
2022-11-27T06:28:37.823Z,101218.91
2022-11-27T06:31:17.468Z,101221.72
2022-11-27T06:33:44.407Z,101224.63
2022-11-27T06:36:10.752Z,101224.56
2022-11-27T06:38:38.346Z,101230.78
2022-11-27T06:41:06.749Z,101226.97
2022-11-27T06:43:34.480Z,101222.41
2022-11-27T06:46:02.176Z,101221.03
2022-11-27T06:48:29.278Z,101214.53
2022-11-27T06:50:59.287Z,101206.97
2022-11-27T06:53:25.644Z,101206.16
2022-11-27T06:55:52.001Z,101206.16
2022-11-27T06:58:18.349Z,101208.75
2022-11-27T07:00:44.757Z,101203.66
2022-11-27T07:03:11.177Z,101204.28
2022-11-27T07:05:37.652Z,101212.44
2022-11-27T07:08:04.804Z,101206.56
2022-11-27T07:10:34.982Z,101209.03
2022-11-27T07:13:01.823Z,101213.69
2022-11-27T07:15:28.540Z,101204.13
2022-11-27T07:17:54.885Z,101209.66
2022-11-27T07:20:21.271Z,101218.06
2022-11-27T07:22:47.633Z,101216.53
2022-11-27T07:25:14.004Z,101224.03
2022-11-27T07:27:40.461Z,101219.50
2022-11-27T07:30:07.667Z,101219.00
2022-11-27T07:32:34.091Z,101213.25
2022-11-27T07:35:00.479Z,101222.53
2022-11-27T07:37:29.944Z,101216.50
2022-11-27T07:40:02.682Z,101215.72
2022-11-27T07:42:38.011Z,101216.50
2022-11-27T07:45:05.711Z,101209.69
2022-11-27T07:47:32.107Z,101211.41
2022-11-27T07:50:00.248Z,101200.34
2022-11-27T07:52:27.067Z,101189.47
2022-11-27T07:54:53.613Z,101187.88
2022-11-27T07:57:20.144Z,101177.25
2022-11-27T07:59:47.680Z,101175.69
2022-11-27T08:02:14.563Z,101172.63
2022-11-27T08:04:41.220Z,101173.84
2022-11-27T08:07:07.800Z,101181.22
2022-11-27T08:09:34.220Z,101181.31
2022-11-27T08:12:00.655Z,101176.00
2022-11-27T08:14:27.236Z,101168.75
2022-11-27T08:16:53.697Z,101150.38
2022-11-27T08:19:20.103Z,101158.13
2022-11-27T08:21:46.751Z,101157.84
2022-11-27T08:24:13.168Z,101149.19
2022-11-27T08:26:39.953Z,101151.28
2022-11-27T08:29:06.671Z,101148.75
2022-11-27T08:31:33.956Z,101150.28
2022-11-27T08:34:00.490Z,101138.56
2022-11-27T08:36:27.237Z,101146.16
2022-11-27T08:38:55.144Z,101145.22
2022-11-27T08:41:21.752Z,101149.81
2022-11-27T08:43:48.159Z,101151.66
2022-11-27T08:46:14.570Z,101154.69
2022-11-27T08:48:41.893Z,101150.81
2022-11-27T08:51:14.710Z,101149.19
2022-11-27T08:53:44.054Z,101149.03
2022-11-27T08:56:15.489Z,101143.31
2022-11-27T08:58:41.939Z,101148.78
2022-11-27T09:01:14.180Z,101148.47
2022-11-27T09:03:40.642Z,101156.91
2022-11-27T09:06:12.965Z,101165.88
2022-11-27T09:08:40.880Z,101158.16
2022-11-27T09:11:07.901Z,101164.41
2022-11-27T09:13:36.943Z,101151.22
2022-11-27T09:16:04.532Z,101137.94
2022-11-27T09:18:31.281Z,101139.53
2022-11-27T09:21:07.206Z,101137.16
2022-11-27T09:23:34.040Z,101135.38
2022-11-27T09:26:02.591Z,101132.59
2022-11-27T09:28:31.654Z,101132.28
2022-11-27T09:31:00.580Z,101131.25
2022-11-27T09:33:28.849Z,101117.47
2022-11-27T09:35:55.600Z,101114.69
2022-11-27T09:38:23.589Z,101102.19
2022-11-27T09:41:03.140Z,101107.66
2022-11-27T09:43:34.172Z,101103.94
2022-11-27T09:46:09.010Z,101096.50
2022-11-27T09:48:39.871Z,101094.56
2022-11-27T09:51:13.935Z,101087.69
2022-11-27T09:53:49.642Z,101088.19
2022-11-27T09:56:17.917Z,101072.94
2022-11-27T09:58:55.994Z,101068.09
2022-11-27T10:01:41.917Z,101065.41
2022-11-27T10:04:14.013Z,101061.63
2022-11-27T10:06:55.142Z,101062.50
2022-11-27T10:09:50.324Z,101055.16
2022-11-27T10:12:25.680Z,101062.25
2022-11-27T10:15:01.053Z,101047.81
2022-11-27T10:17:31.570Z,101047.09
2022-11-27T10:20:13.553Z,101047.28
2022-11-27T10:22:44.816Z,101040.25
2022-11-27T10:25:21.741Z,101042.78
2022-11-27T10:28:10.158Z,101051.63
2022-11-27T10:30:58.930Z,101031.72
2022-11-27T10:33:31.785Z,101031.91
2022-11-27T10:35:59.764Z,101022.03
2022-11-27T10:38:28.533Z,101024.22
2022-11-27T10:41:49.736Z,101026.84
2022-11-27T10:44:23.654Z,101022.28
2022-11-27T10:46:54.415Z,101015.72
2022-11-27T10:49:20.904Z,101012.94
2022-11-27T10:51:47.281Z,101012.50
2022-11-27T10:54:23.455Z,101001.78
2022-11-27T10:57:00.604Z,101008.13
2022-11-27T10:59:34.638Z,101006.66
2022-11-27T11:02:03.258Z,100997.97
2022-11-27T11:04:39.239Z,100997.00
2022-11-27T11:07:23.510Z,100988.28
2022-11-27T11:09:50.061Z,100993.47
2022-11-27T11:12:21.026Z,101000.41
2022-11-27T11:15:11.362Z,100994.09
2022-11-27T11:17:38.288Z,100992.03
2022-11-27T11:20:24.409Z,100979.50
2022-11-27T11:22:51.464Z,100977.34
2022-11-27T11:25:21.074Z,100977.97
2022-11-27T11:27:50.136Z,100986.72
2022-11-27T11:30:26.377Z,100992.75
2022-11-27T11:33:01.590Z,100998.03
2022-11-27T11:35:37.026Z,101000.94
2022-11-27T11:38:06.067Z,101004.44
2022-11-27T11:40:37.390Z,101000.94
2022-11-27T11:43:25.155Z,100996.03
2022-11-27T11:45:51.526Z,100990.66
2022-11-27T11:48:25.113Z,100984.03
2022-11-27T11:50:55.508Z,100980.34
2022-11-27T11:53:22.291Z,100981.19
2022-11-27T11:56:16.584Z,100989.63
2022-11-27T11:58:57.891Z,100974.78
2022-11-27T12:01:54.134Z,100964.97
2022-11-27T12:04:23.369Z,100965.81
2022-11-27T12:07:01.893Z,100970.97
2022-11-27T12:09:49.423Z,100967.19
2022-11-27T12:12:21.390Z,100961.16
2022-11-27T12:15:04.007Z,100964.56
2022-11-27T12:17:35.871Z,100965.59
2022-11-27T12:20:05.235Z,100968.22
2022-11-27T12:22:46.837Z,100954.84
2022-11-27T12:25:30.279Z,100953.03
2022-11-27T12:28:06.102Z,100959.47
2022-11-27T12:30:39.814Z,100947.44
2022-11-27T12:33:26.881Z,100938.28
2022-11-27T12:36:41.446Z,100930.56
2022-11-27T12:39:16.141Z,100928.47
2022-11-27T12:42:01.050Z,100919.81
2022-11-27T12:45:03.827Z,100915.81
2022-11-27T12:47:46.751Z,100912.22
2022-11-27T12:50:43.657Z,100909.78
2022-11-27T12:53:20.171Z,100908.00
2022-11-27T12:56:16.762Z,100913.72
2022-11-27T12:58:47.666Z,100904.66
2022-11-27T13:01:25.053Z,100895.88
2022-11-27T13:04:29.907Z,100890.81
2022-11-27T13:07:28.930Z,100886.06
2022-11-27T13:09:58.099Z,100889.66
2022-11-27T13:12:30.614Z,100876.47
2022-11-27T13:15:08.566Z,100865.09
2022-11-27T13:17:42.470Z,100854.88
2022-11-27T13:20:20.041Z,100858.25
2022-11-27T13:22:48.186Z,100857.28
2022-11-27T13:25:15.117Z,100847.38
2022-11-27T13:27:46.564Z,100847.03
2022-11-27T13:30:22.621Z,100844.50
2022-11-27T13:32:53.892Z,100849.56
2022-11-27T13:35:36.604Z,100839.25
2022-11-27T13:38:19.088Z,100832.78
2022-11-27T13:40:48.694Z,100824.25
2022-11-27T13:43:41.197Z,100817.50
2022-11-27T13:46:16.084Z,100813.94
2022-11-27T13:48:49.038Z,100814.31
2022-11-27T13:51:25.425Z,100810.94
2022-11-27T13:53:51.839Z,100811.59
2022-11-27T13:56:30.129Z,100809.66
2022-11-27T13:58:56.659Z,100806.31
2022-11-27T14:01:25.037Z,100809.03
2022-11-27T14:03:52.177Z,100811.69
2022-11-27T14:06:23.739Z,100810.72
2022-11-27T14:08:54.710Z,100825.38
2022-11-27T14:11:42.812Z,100818.25
2022-11-27T14:14:21.170Z,100816.88
2022-11-27T14:17:00.123Z,100811.28
2022-11-27T14:19:34.013Z,100818.19
2022-11-27T14:22:02.105Z,100802.16
2022-11-27T14:24:43.807Z,100805.00
2022-11-27T14:27:20.352Z,100806.41
2022-11-27T14:29:47.566Z,100801.38
2022-11-27T14:32:15.861Z,100791.47
2022-11-27T14:34:43.121Z,100795.28
2022-11-27T14:37:27.560Z,100790.22
2022-11-27T14:39:54.736Z,100793.06
2022-11-27T14:42:35.199Z,100787.50
2022-11-27T14:45:12.367Z,100787.94
2022-11-27T14:47:45.258Z,100785.53
2022-11-27T14:50:14.265Z,100780.03
2022-11-27T14:52:43.788Z,100783.63
2022-11-27T14:55:16.164Z,100783.09
2022-11-27T14:57:44.139Z,100773.53
2022-11-27T15:00:20.559Z,100783.53
2022-11-27T15:02:49.818Z,100769.41
2022-11-27T15:05:28.669Z,100766.50
2022-11-27T15:07:57.970Z,100778.50
2022-11-27T15:10:32.444Z,100764.19
2022-11-27T15:13:01.115Z,100773.44
2022-11-27T15:15:30.219Z,100774.19
2022-11-27T15:18:01.041Z,100770.47
2022-11-27T15:20:44.732Z,100762.09
2022-11-27T15:23:17.950Z,100762.28
2022-11-27T15:25:48.113Z,100755.53
2022-11-27T15:28:23.503Z,100759.53
2022-11-27T15:30:50.573Z,100762.81
2022-11-27T15:33:28.443Z,100771.81
2022-11-27T15:36:16.235Z,100769.41
2022-11-27T15:38:43.421Z,100765.31
2022-11-27T15:41:25.962Z,100768.97
2022-11-27T15:43:52.747Z,100761.41
2022-11-27T15:46:25.032Z,100753.41
2022-11-27T15:48:51.995Z,100751.81
2022-11-27T15:51:18.474Z,100745.31
2022-11-27T15:53:45.101Z,100740.13
2022-11-27T15:56:11.453Z,100746.63
2022-11-27T15:58:37.856Z,100744.97
2022-11-27T16:01:05.845Z,100734.03
2022-11-27T16:03:32.220Z,100732.50
2022-11-27T16:06:05.923Z,100725.78
2022-11-27T16:08:32.379Z,100725.16
2022-11-27T16:11:03.605Z,100723.44
2022-11-27T16:13:30.059Z,100715.97
2022-11-27T16:16:04.590Z,100715.88
2022-11-27T16:18:32.194Z,100711.66
2022-11-27T16:21:03.807Z,100710.00
2022-11-27T16:23:30.340Z,100713.94
2022-11-27T16:25:56.800Z,100710.81
2022-11-27T16:28:23.146Z,100714.56
2022-11-27T16:30:51.980Z,100711.19
2022-11-27T16:33:19.836Z,100706.78
2022-11-27T16:35:46.187Z,100708.03
2022-11-27T16:38:12.861Z,100696.88
2022-11-27T16:40:39.468Z,100705.03
2022-11-27T16:43:05.821Z,100706.06
2022-11-27T16:45:35.841Z,100715.94
2022-11-27T16:48:02.806Z,100709.41
2022-11-27T16:50:30.657Z,100709.41
2022-11-27T16:52:57.612Z,100707.50
2022-11-27T16:55:25.142Z,100703.22
2022-11-27T16:57:51.844Z,100699.47
2022-11-27T17:00:18.844Z,100695.94
2022-11-27T17:02:45.250Z,100698.00
2022-11-27T17:05:11.643Z,100688.44
2022-11-27T17:07:38.073Z,100678.22
2022-11-27T17:10:04.950Z,100682.25
2022-11-27T17:12:32.629Z,100677.59
2022-11-27T17:14:58.974Z,100671.28
2022-11-27T17:17:25.452Z,100672.59
2022-11-27T17:19:55.035Z,100669.97
2022-11-27T17:22:21.378Z,100668.31
2022-11-27T17:24:47.749Z,100667.28
2022-11-27T17:27:14.697Z,100663.34
2022-11-27T17:29:41.208Z,100655.28
2022-11-27T17:32:09.861Z,100660.19
2022-11-27T17:34:36.345Z,100654.19
2022-11-27T17:37:02.784Z,100650.81
2022-11-27T17:39:29.161Z,100647.66
2022-11-27T17:41:55.531Z,100641.44
2022-11-27T17:44:21.988Z,100639.09
2022-11-27T17:46:50.522Z,100635.63
2022-11-27T17:49:17.090Z,100636.03
2022-11-27T17:51:43.770Z,100629.09
2022-11-27T17:54:11.254Z,100622.16
2022-11-27T17:56:37.628Z,100627.41
2022-11-27T17:59:04.137Z,100621.03
2022-11-27T18:01:30.871Z,100623.41
2022-11-27T18:04:00.422Z,100620.69
2022-11-27T18:06:27.193Z,100619.00
2022-11-27T18:08:55.702Z,100611.22
2022-11-27T18:11:24.508Z,100606.16
2022-11-27T18:13:51.453Z,100605.25
2022-11-27T18:16:25.148Z,100599.81
2022-11-27T18:18:51.642Z,100596.13
2022-11-27T18:21:19.783Z,100592.56
2022-11-27T18:24:21.298Z,100587.72
2022-11-27T18:27:06.556Z,100579.28
2022-11-27T18:29:23.192Z,100570.28
2022-11-27T18:31:51.026Z,100568.59
2022-11-27T18:34:17.587Z,100562.81
2022-11-27T18:36:45.054Z,100558.69
2022-11-27T18:39:11.935Z,100564.78
2022-11-27T18:41:38.375Z,100560.56
2022-11-27T18:44:04.997Z,100564.13
2022-11-27T18:46:31.483Z,100555.31
2022-11-27T18:48:58.683Z,100546.81
2022-11-27T18:51:26.424Z,100544.28
2022-11-27T18:53:53.389Z,100549.44
2022-11-27T18:56:22.707Z,100557.22
2022-11-27T18:58:50.169Z,100554.41
2022-11-27T19:01:25.690Z,100560.56
2022-11-27T19:03:52.542Z,100555.31
2022-11-27T19:06:21.421Z,100557.66
2022-11-27T19:08:48.055Z,100549.63
2022-11-27T19:11:17.309Z,100551.09
2022-11-27T19:13:45.336Z,100562.19
2022-11-27T19:16:17.715Z,100563.41
2022-11-27T19:18:44.466Z,100559.41
2022-11-27T19:21:12.911Z,100564.13
2022-11-27T19:23:39.537Z,100553.06
2022-11-27T19:26:23.699Z,100560.19
2022-11-27T19:28:51.889Z,100548.09
2022-11-27T19:31:18.608Z,100545.75
2022-11-27T19:33:45.358Z,100553.25
2022-11-27T19:36:13.666Z,100559.34
2022-11-27T19:38:42.291Z,100551.78
2022-11-27T19:41:17.598Z,100554.69
2022-11-27T19:43:45.314Z,100552.13
2022-11-27T19:46:16.657Z,100547.66
2022-11-27T19:48:43.965Z,100552.34
2022-11-27T19:51:10.743Z,100548.78
2022-11-27T19:53:37.806Z,100540.19
2022-11-27T19:56:04.886Z,100541.66
2022-11-27T19:58:32.303Z,100539.34
2022-11-27T20:01:09.903Z,100538.69
2022-11-27T20:03:36.825Z,100533.44
2022-11-27T20:06:09.982Z,100528.84
2022-11-27T20:08:37.562Z,100525.09
2022-11-27T20:11:07.385Z,100515.25
2022-11-27T20:13:33.891Z,100519.00
2022-11-27T20:16:00.395Z,100506.94
2022-11-27T20:18:27.963Z,100510.19
2022-11-27T20:21:05.276Z,100509.28
2022-11-27T20:23:31.769Z,100511.91
2022-11-27T20:25:58.663Z,100499.69
2022-11-27T20:28:25.046Z,100499.53
2022-11-27T20:30:59.309Z,100499.22
2022-11-27T20:33:27.453Z,100495.97
2022-11-27T20:35:55.081Z,100494.09
2022-11-27T20:38:22.873Z,100495.13
2022-11-27T20:40:50.567Z,100485.28
2022-11-27T20:43:16.957Z,100485.06
2022-11-27T20:45:43.506Z,100482.53
2022-11-27T20:48:10.627Z,100480.66
2022-11-27T20:50:38.981Z,100476.16
2022-11-27T20:53:06.275Z,100478.78
2022-11-27T20:55:33.877Z,100476.16
2022-11-27T20:58:00.267Z,100463.50
2022-11-27T21:00:26.954Z,100479.22
2022-11-27T21:02:53.367Z,100472.63
2022-11-27T21:05:20.090Z,100465.91
2022-11-27T21:07:46.649Z,100467.28
2022-11-27T21:10:16.207Z,100470.63
2022-11-27T21:12:43.216Z,100466.03
2022-11-27T21:15:10.298Z,100466.22
2022-11-27T21:17:36.874Z,100458.44
2022-11-27T21:20:04.310Z,100458.44
2022-11-27T21:22:31.477Z,100455.84
2022-11-27T21:24:57.926Z,100458.75
2022-11-27T21:27:24.385Z,100455.06
2022-11-27T21:29:50.906Z,100447.88
2022-11-27T21:32:22.695Z,100451.41
2022-11-27T21:34:49.183Z,100442.91
2022-11-27T21:37:15.592Z,100442.09
2022-11-27T21:39:44.091Z,100447.13
2022-11-27T21:42:10.496Z,100440.50
2022-11-27T21:44:41.258Z,100437.88
2022-11-27T21:47:11.927Z,100437.88
2022-11-27T21:49:41.567Z,100420.25
2022-11-27T21:52:08.192Z,100415.03
2022-11-27T21:54:34.851Z,100415.84
2022-11-27T21:57:01.307Z,100412.91
2022-11-27T21:59:27.838Z,100411.03
2022-11-27T22:01:56.999Z,100406.75
2022-11-27T22:04:24.809Z,100402.63
2022-11-27T22:06:51.352Z,100392.13
2022-11-27T22:09:18.327Z,100389.22
2022-11-27T22:11:46.425Z,100394.03
2022-11-27T22:14:14.831Z,100390.34
2022-11-27T22:16:45.272Z,100390.25
2022-11-27T22:19:12.748Z,100391.00
2022-11-27T22:21:39.254Z,100381.84
2022-11-27T22:24:06.063Z,100384.25
2022-11-27T22:26:32.462Z,100386.88
2022-11-27T22:28:59.209Z,100383.56
2022-11-27T22:31:29.764Z,100378.72
2022-11-27T22:33:57.197Z,100374.94
2022-11-27T22:36:32.460Z,100370.72
2022-11-27T22:39:00.964Z,100379.22
2022-11-27T22:41:29.546Z,100368.53
2022-11-27T22:43:56.297Z,100361.81
2022-11-27T22:46:25.710Z,100359.59
2022-11-27T22:48:54.705Z,100360.16
2022-11-27T22:51:22.042Z,100356.03
2022-11-27T22:53:48.545Z,100346.28
2022-11-27T22:56:15.335Z,100339.88
2022-11-27T22:58:42.419Z,100335.47
2022-11-27T23:01:13.962Z,100343.47
2022-11-27T23:03:40.450Z,100342.00
2022-11-27T23:06:12.734Z,100339.38
2022-11-27T23:08:40.913Z,100341.13
2022-11-27T23:11:09.086Z,100332.97
2022-11-27T23:13:35.795Z,100332.78
2022-11-27T23:16:03.845Z,100331.09
2022-11-27T23:18:30.342Z,100339.16
2022-11-27T23:20:56.699Z,100332.34
2022-11-27T23:23:24.029Z,100322.28
2022-11-27T23:25:50.589Z,100327.94
2022-11-27T23:28:17.006Z,100323.44
2022-11-27T23:30:43.358Z,100313.16
2022-11-27T23:33:09.756Z,100310.53
2022-11-27T23:35:36.128Z,100319.53
2022-11-27T23:38:03.419Z,100317.44
2022-11-27T23:40:29.824Z,100324.56
2022-11-27T23:42:56.201Z,100316.81
2022-11-27T23:45:22.576Z,100320.81
2022-11-27T23:47:50.365Z,100326.34
2022-11-27T23:50:16.874Z,100316.00
2022-11-27T23:52:43.315Z,100316.00
2022-11-27T23:55:09.757Z,100315.25
2022-11-27T23:57:36.134Z,100313.38
